Time;durP1;ratioP1;P1;durP2;ratioP2;P2;SDS_P1;SDS_P2;PMS_P1;PMS_P2;Temp;Humidity;BMP_temperature;BMP_pressure;BME280_temperature;BME280_humidity;BME280_pressure;Samples;Min_cycle;Max_cycle;Signal;HPM_P1;HPM_P2
2022/08/28 00:01:57;;;;;;;47.73;7.60;;;;;;;-143.84;43.31;44993.84;5110717;28;20439;-70
2022/08/28 00:04:24;;;;;;;60.40;7.40;;;;;;;-143.84;43.49;45022.41;5110667;28;20471;-70
2022/08/28 00:06:51;;;;;;;39.67;7.37;;;;;;;-143.84;43.24;44995.75;5110673;28;20435;-70
2022/08/28 00:09:19;;;;;;;46.53;8.40;;;;;;;-143.84;43.31;44982.41;5110691;28;20511;-70
2022/08/28 00:11:48;;;;;;;37.07;6.77;;;;;;;-143.84;42.95;44991.94;5110737;28;20479;-70
2022/08/28 00:14:17;;;;;;;59.43;9.10;;;;;;;-143.84;43.27;45014.78;5110606;28;20476;-70
2022/08/28 00:16:44;;;;;;;42.77;8.03;;;;;;;-143.84;42.45;44993.84;5111021;28;20496;-70
2022/08/28 00:19:11;;;;;;;47.47;7.03;;;;;;;-143.84;42.49;45007.19;5110789;28;20514;-70
2022/08/28 00:21:38;;;;;;;39.97;7.40;;;;;;;-143.84;42.22;44991.94;5110533;28;20439;-70
2022/08/28 00:24:06;;;;;;;57.20;6.80;;;;;;;-143.84;42.17;45005.28;5110446;28;20475;-70
2022/08/28 00:29:20;;;;;;;65.70;7.00;;;;;;;-143.84;42.32;45014.78;5119366;27;20817;-71
2022/08/28 00:31:47;;;;;;;48.80;6.97;;;;;;;-143.84;42.09;44995.75;5130875;27;20942;-70
2022/08/28 00:34:14;;;;;;;36.63;7.13;;;;;;;-143.84;41.91;45031.94;5131094;27;20442;-70
2022/08/28 00:36:41;;;;;;;47.43;7.20;;;;;;;-143.84;42.05;45007.19;5130899;27;21015;-70
2022/08/28 00:39:10;;;;;;;36.13;6.33;;;;;;;-143.84;41.74;45001.47;5130752;27;20936;-71
2022/08/28 00:41:40;;;;;;;34.67;6.73;;;;;;;-143.84;41.54;44982.41;5130757;27;20454;-70
2022/08/28 00:44:13;;;;;;;42.80;7.40;;;;;;;-143.84;41.57;44991.94;5130741;27;20446;-71
2022/08/28 00:46:41;;;;;;;41.50;6.57;;;;;;;-143.84;41.20;44993.84;5130938;27;20450;-72
2022/08/28 00:49:09;;;;;;;73.83;7.90;;;;;;;-143.84;41.54;44995.75;5131149;27;20430;-72
2022/08/28 00:54:23;;;;;;;44.13;6.70;;;;;;;-143.84;41.74;45009.09;5131091;27;20537;-72
2022/08/28 00:56:54;;;;;;;46.13;6.60;;;;;;;-143.84;41.79;44991.94;5131194;27;20430;-72
2022/08/28 00:59:24;;;;;;;42.77;6.93;;;;;;;-143.84;41.36;45007.19;5131218;27;20434;-72
2022/08/28 01:01:55;;;;;;;66.33;7.40;;;;;;;-143.84;41.37;44986.22;5130957;27;20422;-71
2022/08/28 01:04:25;;;;;;;45.50;6.80;;;;;;;-143.84;40.79;44980.53;5130847;27;20484;-72
2022/08/28 01:06:55;;;;;;;39.50;7.13;;;;;;;-143.84;40.82;44988.13;5130869;27;20434;-70
2022/08/28 01:09:26;;;;;;;57.07;7.13;;;;;;;-143.84;41.20;45030.03;5131473;27;20463;-71
2022/08/28 01:11:58;;;;;;;51.17;8.07;;;;;;;-143.84;41.31;44980.53;5130634;27;20478;-72
2022/08/28 01:14:27;;;;;;;57.13;8.70;;;;;;;-143.84;41.30;45014.78;5130804;27;20434;-72
2022/08/28 01:16:55;;;;;;;41.60;7.37;;;;;;;-143.84;42.07;44969.09;5130717;27;20446;-70
2022/08/28 01:19:30;;;;;;;35.50;6.67;;;;;;;-143.84;42.54;44991.94;5130483;27;20948;-71
2022/08/28 01:22:06;;;;;;;47.17;7.00;;;;;;;-143.84;42.68;45020.50;5130748;27;20923;-72
2022/08/28 01:24:38;;;;;;;31.83;6.67;;;;;;;-143.84;42.94;45003.38;5130443;27;20477;-70
2022/08/28 01:27:05;;;;;;;48.77;7.67;;;;;;;-143.84;43.58;44982.41;5130487;27;20495;-70
2022/08/28 01:29:33;;;;;;;39.03;7.27;;;;;;;-143.84;44.09;45001.47;5130639;27;20434;-70
2022/08/28 01:32:00;;;;;;;50.87;7.93;;;;;;;-143.84;44.58;44974.81;5130760;27;20437;-71
2022/08/28 01:34:28;;;;;;;57.97;8.33;;;;;;;-143.84;44.85;44990.03;5130506;27;21224;-72
2022/08/28 01:36:56;;;;;;;46.87;7.40;;;;;;;-143.84;43.96;44980.53;5130297;28;20961;-71
2022/08/28 01:39:26;;;;;;;40.07;7.20;;;;;;;-143.84;43.91;44995.75;5130564;28;20434;-70
2022/08/28 01:41:55;;;;;;;51.57;8.03;;;;;;;-143.84;44.43;44991.94;5130965;28;20430;-72
2022/08/28 01:44:26;;;;;;;48.00;7.00;;;;;;;-143.84;44.66;44984.31;5130811;28;20442;-71
2022/08/28 01:46:55;;;;;;;50.43;6.40;;;;;;;-143.84;45.41;44982.41;5130334;28;20446;-71
2022/08/28 01:49:23;;;;;;;38.20;7.13;;;;;;;-143.84;45.42;44991.94;5130453;28;20438;-70
2022/08/28 01:51:51;;;;;;;50.47;6.77;;;;;;;-143.84;45.29;45010.97;5129978;28;20963;-71
2022/08/28 01:54:18;;;;;;;50.67;8.73;;;;;;;-143.84;45.46;44997.66;5130339;28;20437;-72
2022/08/28 01:56:46;;;;;;;39.60;8.03;;;;;;;-143.84;45.81;44999.56;5129887;28;20438;-71
2022/08/28 01:59:15;;;;;;;55.83;8.90;;;;;;;-143.84;46.14;45005.28;5130119;28;20543;-71
2022/08/28 02:01:43;;;;;;;43.87;6.60;;;;;;;-143.84;46.60;45014.78;5129964;28;20933;-71
2022/08/28 02:04:10;;;;;;;54.87;8.57;;;;;;;-143.84;47.15;45014.78;5129934;28;20510;-71
2022/08/28 02:06:38;;;;;;;44.20;6.80;;;;;;;-143.84;47.72;45007.19;5130237;28;20877;-71
2022/08/28 02:09:06;;;;;;;47.20;6.63;;;;;;;-143.84;48.56;45001.47;5129750;28;20463;-71
2022/08/28 02:11:34;;;;;;;46.47;7.50;;;;;;;-143.84;48.96;45016.69;5130161;28;20874;-71
2022/08/28 02:14:01;;;;;;;42.97;8.33;;;;;;;-143.84;46.61;44988.13;5131738;27;20438;-71
2022/08/28 02:16:30;;;;;;;52.77;7.93;;;;;;;-143.84;47.22;45018.59;5134004;27;20514;-71
2022/08/28 02:18:57;;;;;;;32.30;6.27;;;;;;;-143.84;48.11;45003.38;5133695;27;20475;-71
2022/08/28 02:21:25;;;;;;;47.10;7.43;;;;;;;-143.84;49.03;44997.66;5133917;27;20482;-71
2022/08/28 02:23:52;;;;;;;52.53;8.10;;;;;;;-143.84;49.28;45007.19;5133692;27;20445;-71
2022/08/28 02:26:20;;;;;;;47.80;7.10;;;;;;;-143.84;50.13;45007.19;5133733;27;20477;-71
2022/08/28 02:28:47;;;;;;;53.83;8.17;;;;;;;-143.84;51.09;45001.47;5133925;27;20532;-71
2022/08/28 02:31:14;;;;;;;30.80;7.00;;;;;;;-143.84;51.70;45024.31;5133924;27;20528;-72
2022/08/28 02:33:44;;;;;;;56.03;7.50;;;;;;;-143.84;51.19;45001.47;5133757;27;20442;-71
2022/08/28 02:36:13;;;;;;;52.60;8.17;;;;;;;-143.84;51.44;45007.19;5133783;27;20446;-71
2022/08/28 02:38:41;;;;;;;52.67;7.87;;;;;;;-143.84;54.19;44991.94;5133484;27;20430;-71
2022/08/28 02:41:10;;;;;;;45.30;7.30;;;;;;;-143.84;56.59;45009.09;5133636;27;20845;-71
2022/08/28 02:43:38;;;;;;;77.43;9.43;;;;;;;-143.84;55.31;45007.19;5133412;27;20430;-70
2022/08/28 02:46:06;;;;;;;56.00;7.60;;;;;;;-143.84;55.49;44984.31;5133494;27;20481;-71
2022/08/28 02:48:39;;;;;;;56.57;8.37;;;;;;;-143.84;55.38;45003.38;5133585;27;20792;-72
2022/08/28 02:51:10;;;;;;;55.30;8.27;;;;;;;-143.84;55.77;45009.09;5133420;27;20501;-72
2022/08/28 02:53:37;;;;;;;44.57;7.90;;;;;;;-143.84;55.87;45018.59;5133106;27;20438;-72
2022/08/28 02:56:05;;;;;;;32.07;7.13;;;;;;;-143.84;55.82;45022.41;5133444;27;20442;-72
2022/08/28 02:58:34;;;;;;;36.90;6.43;;;;;;;-143.84;55.50;45018.59;5133291;27;20483;-72
2022/08/28 03:01:02;;;;;;;52.07;7.23;;;;;;;-143.84;55.92;45022.41;5133044;27;20454;-71
2022/08/28 03:03:31;;;;;;;34.90;7.77;;;;;;;-143.84;56.59;45003.38;5133668;27;21234;-72
2022/08/28 03:05:58;;;;;;;48.47;8.60;;;;;;;-143.84;56.20;45007.19;5132585;27;20964;-72
2022/08/28 03:08:28;;;;;;;46.07;7.53;;;;;;;-143.84;56.71;45014.78;5131255;27;20443;-72
2022/08/28 03:10:56;;;;;;;28.90;7.53;;;;;;;-143.84;56.30;45009.09;5131313;27;20485;-72
2022/08/28 03:13:23;;;;;;;35.37;8.00;;;;;;;-143.84;56.53;45001.47;5132305;27;20438;-71
2022/08/28 03:15:51;;;;;;;51.17;8.50;;;;;;;-143.84;56.38;44999.56;5131794;27;20438;-71
2022/08/28 03:18:19;;;;;;;54.13;7.43;;;;;;;-143.84;56.40;45031.94;5131880;27;20453;-72
2022/08/28 03:20:47;;;;;;;47.17;6.60;;;;;;;-143.84;56.16;45009.09;5132874;27;20521;-72
2022/08/28 03:23:26;;;;;;;52.93;8.37;;;;;;;-143.84;56.42;45014.78;5132410;27;20438;-72
2022/08/28 03:25:57;;;;;;;49.73;7.70;;;;;;;-143.84;56.77;45001.47;5131348;27;20584;-75
2022/08/28 03:28:26;;;;;;;28.57;7.80;;;;;;;-143.84;57.29;45026.22;5117759;27;21001;-72
2022/08/28 03:30:53;;;;;;;45.87;7.10;;;;;;;-143.84;57.13;45060.50;5112044;28;20435;-73
2022/08/28 03:33:21;;;;;;;42.03;7.00;;;;;;;-143.84;57.30;45022.41;5111028;28;20533;-72
2022/08/28 03:35:49;;;;;;;29.20;8.13;;;;;;;-143.84;56.92;45009.09;5111637;28;20443;-73
2022/08/28 03:38:16;;;;;;;62.70;12.27;;;;;;;-143.84;56.20;45014.78;5113167;28;20435;-82
2022/08/28 03:40:46;;;;;;;37.10;9.63;;;;;;;-143.84;56.26;44993.84;5115019;28;20466;-80
2022/08/28 03:43:18;;;;;;;35.07;9.03;;;;;;;-143.84;56.82;45010.97;5114237;28;20436;-82
2022/08/28 03:45:57;;;;;;;47.53;7.70;;;;;;;-143.84;56.24;45014.78;5114334;28;20471;-79
2022/08/28 03:48:26;;;;;;;57.87;9.07;;;;;;;-143.84;56.79;45022.41;5114215;28;20523;-81
2022/08/28 03:50:54;;;;;;;46.13;8.83;;;;;;;-143.84;56.67;45012.88;5114054;28;20985;-82
2022/08/28 03:53:22;;;;;;;57.23;8.57;;;;;;;-143.84;56.37;45018.59;5113633;28;20438;-80
2022/08/28 03:55:50;;;;;;;36.30;9.13;;;;;;;-143.84;56.33;45005.28;5114701;28;20435;-80
2022/08/28 03:58:19;;;;;;;52.77;9.37;;;;;;;-143.84;56.41;45039.53;5113920;28;20431;-79
2022/08/28 04:00:47;;;;;;;43.13;9.40;;;;;;;-143.84;55.97;45007.19;5113126;28;20538;-74
2022/08/28 04:03:14;;;;;;;55.10;9.57;;;;;;;-143.84;55.77;45007.19;5113311;28;20854;-82
2022/08/28 04:05:42;;;;;;;34.23;8.07;;;;;;;-143.84;55.28;45026.22;5114314;28;20466;-77
2022/08/28 04:08:14;;;;;;;55.47;8.40;;;;;;;-143.84;55.03;45030.03;5113345;28;20439;-81
2022/08/28 04:10:42;;;;;;;52.10;8.50;;;;;;;-143.84;54.96;44982.41;5113066;28;20438;-79
2022/08/28 04:13:11;;;;;;;50.87;8.13;;;;;;;-143.84;54.84;45003.38;5112711;28;20457;-81
2022/08/28 04:15:40;;;;;;;36.73;7.70;;;;;;;-143.84;55.12;45007.19;5113150;28;20432;-76
2022/08/28 04:18:07;;;;;;;39.70;7.57;;;;;;;-143.84;54.79;44999.56;5113836;28;20431;-78
2022/08/28 04:20:34;;;;;;;49.23;6.57;;;;;;;-143.84;54.45;45009.09;5113356;28;20443;-79
2022/08/28 04:23:02;;;;;;;42.63;8.47;;;;;;;-143.84;55.08;45005.28;5113608;28;20913;-80
2022/08/28 04:25:34;;;;;;;55.77;8.70;;;;;;;-143.84;54.92;45018.59;5113032;28;20482;-80
2022/08/28 04:28:01;;;;;;;50.13;7.73;;;;;;;-143.84;54.69;44995.75;5112425;28;20442;-80
2022/08/28 04:30:29;;;;;;;42.23;7.90;;;;;;;-143.84;53.77;45005.28;5112964;28;20435;-80
2022/08/28 04:32:58;;;;;;;30.43;7.57;;;;;;;-143.84;53.59;45010.97;5112882;28;20829;-80
2022/08/28 04:35:25;;;;;;;37.50;7.90;;;;;;;-143.84;54.06;45001.47;5113027;28;20435;-80
2022/08/28 04:37:52;;;;;;;49.87;7.53;;;;;;;-143.84;54.83;44997.66;5111489;28;20925;-80
2022/08/28 04:40:20;;;;;;;39.17;6.20;;;;;;;-143.84;55.06;45003.38;5112737;28;20462;-82
2022/08/28 04:42:47;;;;;;;39.57;7.10;;;;;;;-143.84;54.69;44955.75;5094533;28;20990;-81
2022/08/28 04:45:15;;;;;;;30.67;7.00;;;;;;;-143.84;53.89;44991.94;5112654;28;20427;-80
2022/08/28 04:47:42;;;;;;;38.87;7.20;;;;;;;-143.84;53.29;45003.38;5112768;28;21021;-80
2022/08/28 04:50:11;;;;;;;30.67;7.80;;;;;;;-143.84;54.69;44986.22;5112985;28;20446;-80
2022/08/28 04:52:41;;;;;;;48.33;8.27;;;;;;;-143.84;54.06;44961.47;5113165;28;20443;-79
2022/08/28 04:55:10;;;;;;;41.33;7.70;;;;;;;-143.84;53.16;44976.72;5112576;28;20508;-78
2022/08/28 04:57:37;;;;;;;34.47;6.80;;;;;;;-143.84;51.67;44965.28;5111980;28;20494;-77
2022/08/28 05:00:07;;;;;;;43.00;7.13;;;;;;;-143.84;49.34;44974.81;5112386;28;20435;-81
2022/08/28 05:02:34;;;;;;;42.10;7.57;;;;;;;-143.84;48.12;44971.00;5112379;28;20439;-78
2022/08/28 05:05:02;;;;;;;35.23;6.97;;;;;;;-143.84;47.80;44959.56;5131842;27;20457;-78
2022/08/28 05:07:31;;;;;;;38.23;7.57;;;;;;;-143.84;46.35;44942.44;5132326;27;20495;-78
2022/08/28 05:09:59;;;;;;;37.50;7.07;;;;;;;-143.84;48.60;44940.53;5132557;27;20533;-79
2022/08/28 05:12:26;;;;;;;38.63;8.43;;;;;;;-143.84;50.45;44946.25;5132550;27;21006;-79
2022/08/28 05:14:53;;;;;;;40.97;7.00;;;;;;;-143.84;49.13;44910.06;5132596;27;20427;-78
2022/08/28 05:17:20;;;;;;;40.90;7.50;;;;;;;-143.84;47.74;44904.34;5132931;27;20426;-79
2022/08/28 05:19:48;;;;;;;54.10;9.90;;;;;;;-143.84;41.97;44915.78;5132722;27;20951;-79
2022/08/28 05:22:15;;;;;;;50.53;8.77;;;;;;;-143.84;40.23;44906.25;5131535;27;20465;-77
2022/08/28 05:24:43;;;;;;;53.47;8.73;;;;;;;-143.84;40.61;44910.06;5132474;27;20434;-79
2022/08/28 05:27:10;;;;;;;45.80;8.77;;;;;;;-143.84;43.21;44908.16;5132576;27;20470;-78
2022/08/28 05:29:38;;;;;;;43.40;8.33;;;;;;;-143.84;44.16;44908.16;5132497;27;20434;-78
2022/08/28 05:32:06;;;;;;;51.27;9.40;;;;;;;-143.84;44.66;44904.34;5132497;27;20434;-78
2022/08/28 05:34:34;;;;;;;38.03;8.60;;;;;;;-143.84;44.77;44892.94;5132814;27;20521;-78
2022/08/28 05:37:01;;;;;;;59.00;9.27;;;;;;;-143.84;45.14;44904.34;5132368;27;20434;-78
2022/08/28 05:39:28;;;;;;;47.57;8.20;;;;;;;-143.84;44.04;44915.78;5132232;28;20922;-77
2022/08/28 05:41:56;;;;;;;55.33;8.47;;;;;;;-143.84;43.11;44883.41;5132315;28;20430;-77
2022/08/28 05:44:23;;;;;;;60.80;9.03;;;;;;;-143.84;42.30;44919.59;5132536;28;20434;-77
2022/08/28 05:46:51;;;;;;;48.17;9.23;;;;;;;-143.84;41.59;44910.06;5132181;28;20469;-77
2022/08/28 05:49:19;;;;;;;51.60;8.57;;;;;;;-143.84;40.49;44908.16;5134169;27;20461;-77
2022/08/28 05:51:46;;;;;;;38.10;7.87;;;;;;;-143.84;39.77;44896.75;5136187;27;20943;-77
2022/08/28 05:54:14;;;;;;;59.77;7.77;;;;;;;-143.84;39.40;44871.97;5136255;27;20445;-77
2022/08/28 05:56:43;;;;;;;51.03;6.67;;;;;;;-143.84;39.29;44860.56;5135939;27;20442;-77
2022/08/28 05:59:13;;;;;;;57.80;8.80;;;;;;;-143.84;39.09;44898.66;5136734;27;20509;-77
2022/08/28 06:01:43;;;;;;;41.20;7.17;;;;;;;-143.84;39.20;44898.66;5136195;27;20430;-77
2022/08/28 06:04:13;;;;;;;36.53;8.50;;;;;;;-143.84;38.93;44866.28;5136425;27;20438;-77
2022/08/28 06:06:40;;;;;;;54.90;8.80;;;;;;;-143.84;38.94;44870.09;5135973;27;20976;-77
2022/08/28 06:09:11;;;;;;;40.20;8.47;;;;;;;-143.84;39.64;44870.09;5136350;27;20494;-77
2022/08/28 06:11:39;;;;;;;52.17;9.50;;;;;;;-143.84;39.60;44841.53;5136110;27;20482;-77
2022/08/28 06:14:09;;;;;;;45.93;8.50;;;;;;;-143.84;38.92;44839.63;5135923;27;20429;-77
2022/08/28 06:16:42;;;;;;;43.63;9.53;;;;;;;-143.84;39.04;44862.47;5135690;27;20437;-77
2022/08/28 06:19:10;;;;;;;80.80;16.20;;;;;;;-143.84;39.80;44835.81;5135773;27;20502;-77
2022/08/28 06:21:40;;;;;;;53.90;13.33;;;;;;;-143.84;39.92;44841.53;5135909;27;20422;-77
2022/08/28 06:24:08;;;;;;;50.77;13.60;;;;;;;-143.84;40.39;44824.38;5136121;27;20442;-77
2022/08/28 06:26:35;;;;;;;47.60;8.97;;;;;;;-143.84;39.58;44822.47;5136272;27;20480;-77
2022/08/28 06:29:04;;;;;;;37.90;7.53;;;;;;;-143.84;38.75;44835.81;5136176;27;20426;-77
2022/08/28 06:31:31;;;;;;;51.07;7.50;;;;;;;-143.84;38.52;44786.31;5135853;27;20445;-77
2022/08/28 06:34:01;;;;;;;53.17;10.00;;;;;;;-143.84;38.72;44809.16;5135889;27;20795;-77
2022/08/28 06:36:30;;;;;;;46.13;7.67;;;;;;;-143.84;36.51;44820.56;5135764;27;20434;-77
2022/08/28 06:38:58;;;;;;;60.63;8.40;;;;;;;-143.84;36.72;44784.41;5135673;27;20920;-77
2022/08/28 06:41:27;;;;;;;45.70;7.50;;;;;;;-143.84;36.07;44816.78;5135681;27;20498;-77
2022/08/28 06:43:55;;;;;;;45.10;7.60;;;;;;;-143.84;34.62;44795.81;5135663;27;20477;-77
2022/08/28 06:46:22;;;;;;;43.73;7.33;;;;;;;-143.84;34.93;44803.44;5135564;27;20502;-77
2022/08/28 06:48:49;;;;;;;39.60;7.63;;;;;;;-143.84;34.74;44793.91;5136226;27;20503;-77
2022/08/28 06:51:18;;;;;;;35.87;6.70;;;;;;;-143.84;35.07;44807.25;5135753;27;20523;-76
2022/08/28 06:53:46;;;;;;;43.40;7.73;;;;;;;-143.84;36.04;44790.13;5135353;27;20442;-77
2022/08/28 06:56:16;;;;;;;33.97;9.17;;;;;;;-143.84;36.44;44803.44;5135213;27;20449;-77
2022/08/28 06:58:45;;;;;;;53.13;11.43;;;;;;;-143.84;36.35;44782.50;5135339;27;20449;-77
2022/08/28 07:01:15;;;;;;;75.97;12.20;;;;;;;-143.84;36.58;44812.97;5134817;27;20430;-73
2022/08/28 07:03:43;;;;;;;71.77;13.10;;;;;;;-143.84;35.84;44805.34;5134756;27;20774;-73
2022/08/28 07:06:12;;;;;;;40.00;12.57;;;;;;;-143.84;35.82;44790.13;5134845;27;20437;-73
2022/08/28 07:08:42;;;;;;;59.27;12.63;;;;;;;-143.84;36.42;44792.00;5134399;27;20430;-74
2022/08/28 07:11:12;;;;;;;47.50;11.30;;;;;;;-143.84;36.03;44771.06;5134304;27;20489;-73
2022/08/28 07:13:40;;;;;;;42.03;11.03;;;;;;;-143.84;35.73;44769.16;5133618;27;20449;-73
2022/08/28 07:16:08;;;;;;;58.13;11.97;;;;;;;-143.84;36.09;44792.00;5135665;27;20811;-73
2022/08/28 07:18:36;;;;;;;58.53;11.90;;;;;;;-143.84;36.28;44788.22;5135410;27;20763;-73
2022/08/28 07:21:03;;;;;;;65.53;12.00;;;;;;;-143.84;35.30;44792.00;5135521;27;20475;-73
2022/08/28 07:23:32;;;;;;;67.30;11.90;;;;;;;-143.84;35.30;44788.22;5135093;27;20438;-73
2022/08/28 07:26:04;;;;;;;67.37;10.23;;;;;;;-143.84;34.25;44795.81;5135277;27;20460;-73
2022/08/28 07:28:31;;;;;;;44.23;9.20;;;;;;;-143.84;34.45;44805.34;5135099;27;20434;-73
2022/08/28 07:31:00;;;;;;;59.80;11.83;;;;;;;-143.84;34.71;44788.22;5134883;27;20403;-76
2022/08/28 07:33:28;;;;;;;61.43;10.87;;;;;;;-143.84;34.61;44752.03;5134329;27;20434;-76
2022/08/28 07:35:56;;;;;;;51.67;9.80;;;;;;;-143.84;34.62;44767.25;5132379;27;20434;-76
2022/08/28 07:38:24;;;;;;;49.87;10.70;;;;;;;-143.84;35.15;44774.88;5131677;27;20875;-76
2022/08/28 07:40:51;;;;;;;49.77;10.33;;;;;;;-143.84;35.45;44767.25;5133104;27;20491;-76
2022/08/28 07:46:07;;;;;;;46.63;9.03;;;;;;;-143.84;35.57;44786.31;5132392;27;20446;-76
2022/08/28 07:48:35;;;;;;;53.10;8.80;;;;;;;-143.84;34.85;44782.50;5132207;27;20495;-75
2022/08/28 07:51:02;;;;;;;51.73;8.93;;;;;;;-143.84;34.74;44757.75;5129395;27;20525;-76
2022/08/28 07:53:30;;;;;;;43.90;8.50;;;;;;;-143.84;34.34;44752.03;5119605;27;20453;-75
2022/08/28 07:55:57;;;;;;;50.97;7.70;;;;;;;-143.84;34.05;44744.41;5130670;27;20458;-76
2022/08/28 07:58:26;;;;;;;55.40;9.70;;;;;;;-143.84;34.93;44776.78;5130464;27;20959;-76
2022/08/28 08:00:54;;;;;;;62.50;9.73;;;;;;;-143.84;35.15;44772.97;5131680;27;20521;-75
2022/08/28 08:03:23;;;;;;;47.00;8.67;;;;;;;-143.84;34.46;44763.47;5131773;27;20495;-76
2022/08/28 08:05:54;;;;;;;58.90;9.93;;;;;;;-143.84;36.21;44790.13;5131749;27;20483;-74
2022/08/28 08:08:22;;;;;;;48.53;9.20;;;;;;;-143.84;36.69;44812.97;5129744;27;21006;-75
2022/08/28 08:10:57;;;;;;;42.90;9.00;;;;;;;-143.84;35.91;44793.91;5131659;27;21022;-73
2022/08/28 08:13:25;;;;;;;44.60;8.20;;;;;;;-143.84;36.91;44793.91;5132029;27;20486;-76
2022/08/28 08:15:52;;;;;;;50.30;8.67;;;;;;;-143.84;37.21;44811.06;5133207;27;20450;-76
2022/08/28 08:18:20;;;;;;;52.40;8.40;;;;;;;-143.84;37.78;44803.44;5133197;27;20422;-76
2022/08/28 08:20:47;;;;;;;39.63;8.33;;;;;;;-143.84;37.82;44797.72;5132686;27;20442;-77
2022/08/28 08:23:15;;;;;;;40.63;8.03;;;;;;;-143.84;37.79;44795.81;5133866;27;20867;-76
2022/08/28 08:25:42;;;;;;;45.37;9.23;;;;;;;-143.84;37.03;44801.53;5133247;27;20437;-76
2022/08/28 08:28:09;;;;;;;38.67;7.87;;;;;;;-143.84;36.31;44801.53;5133379;27;20465;-76
2022/08/28 08:30:38;;;;;;;33.27;7.60;;;;;;;-143.84;36.95;44805.34;5133502;27;20499;-76
2022/08/28 08:33:05;;;;;;;48.90;8.10;;;;;;;-143.84;37.92;44811.06;5133151;27;20442;-75
2022/08/28 08:35:32;;;;;;;53.60;8.17;;;;;;;-143.84;37.95;44797.72;5132669;27;20452;-76
2022/08/28 08:37:59;;;;;;;48.03;8.53;;;;;;;-143.84;38.52;44807.25;5132814;27;20442;-76
2022/08/28 08:40:27;;;;;;;45.07;9.10;;;;;;;-143.84;37.70;44792.00;5132994;27;20430;-75
2022/08/28 08:42:55;;;;;;;56.90;8.33;;;;;;;-143.84;36.62;44803.44;5133337;27;20954;-76
2022/08/28 08:45:25;;;;;;;61.40;8.90;;;;;;;-143.84;37.92;44820.56;5133528;27;20431;-76
2022/08/28 08:47:56;;;;;;;32.27;8.30;;;;;;;-143.84;38.06;44811.06;5133486;27;20466;-76
2022/08/28 08:50:25;;;;;;;44.03;9.90;;;;;;;-143.84;36.99;44788.22;5132793;27;20978;-75
2022/08/28 08:53:14;;;;;;;63.70;10.03;;;;;;;-143.84;38.21;44799.63;5135266;27;20438;-77
2022/08/28 08:55:45;;;;;;;48.60;9.40;;;;;;;-143.84;38.65;44809.16;5126551;27;20994;-77
2022/08/28 08:58:20;;;;;;;39.77;8.03;;;;;;;-143.84;37.64;44801.53;5129814;27;20426;-76
2022/08/28 09:00:56;;;;;;;54.93;7.60;;;;;;;-143.84;35.76;44832.00;5132483;27;20498;-77
2022/08/28 09:03:32;;;;;;;52.47;7.20;;;;;;;-143.84;33.29;44778.69;5132877;27;20430;-77
2022/08/28 09:06:04;;;;;;;48.97;7.77;;;;;;;-143.84;34.80;44763.47;5132231;27;20486;-76
2022/08/28 09:08:40;;;;;;;52.33;9.00;;;;;;;-143.84;33.54;44793.91;5133461;27;20462;-77
2022/08/28 09:11:30;;;;;;;47.67;7.97;;;;;;;-143.84;33.94;44778.69;5132357;27;20921;-77
2022/08/28 09:14:03;;;;;;;34.27;7.37;;;;;;;-143.84;34.39;44799.63;5126532;27;20442;-77
2022/08/28 09:16:33;;;;;;;36.23;7.53;;;;;;;-143.84;33.31;44778.69;5123499;27;20939;-76
2022/08/28 09:19:02;;;;;;;46.97;7.70;;;;;;;-143.84;33.24;44761.56;5121525;27;20427;-77
2022/08/28 09:21:32;;;;;;;33.03;7.30;;;;;;;-143.84;31.85;44727.28;5125903;27;20898;-77
2022/08/28 09:24:02;;;;;;;53.27;7.60;;;;;;;-143.84;31.43;44752.03;5132848;27;20435;-77
2022/08/28 09:26:30;;;;;;;49.40;7.20;;;;;;;-143.84;31.97;44738.69;5124349;27;20927;-77
2022/08/28 09:29:02;;;;;;;42.10;6.70;;;;;;;-143.84;31.75;44782.50;5121271;27;20518;-77
2022/08/28 09:31:33;;;;;;;53.47;6.70;;;;;;;-143.84;31.78;44752.03;5122240;27;20873;-77
2022/08/28 09:34:19;;;;;;;57.17;7.40;;;;;;;-143.84;32.02;44769.16;5132529;27;20429;-77
2022/08/28 09:36:47;;;;;;;56.13;7.50;;;;;;;-143.84;30.82;44769.16;5125451;27;20491;-77
2022/08/28 09:39:18;;;;;;;47.50;7.03;;;;;;;-143.84;30.28;44772.97;5123720;27;20428;-77
2022/08/28 09:45:05;;;;;;;38.33;6.53;;;;;;;-143.84;30.40;44750.13;5136660;27;20491;-76
2022/08/28 09:47:43;;;;;;;38.40;6.80;;;;;;;-143.84;30.93;44744.41;5126846;28;20477;-75
2022/08/28 09:50:27;;;;;;;37.30;6.57;;;;;;;-143.84;30.52;44752.03;5132993;27;20494;-77
2022/08/28 09:52:56;;;;;;;47.77;6.40;;;;;;;-143.84;30.27;44750.13;5121878;28;20438;-76
2022/08/28 09:55:42;;;;;;;47.37;6.77;;;;;;;-143.84;30.58;44752.03;5133970;27;20457;-76
2022/08/28 09:58:09;;;;;;;41.97;6.90;;;;;;;-143.84;30.13;44750.13;5126867;27;20528;-76
2022/08/28 10:00:41;;;;;;;54.47;8.33;;;;;;;-143.84;32.40;44750.13;5123901;27;20458;-77
2022/08/28 10:03:15;;;;;;;47.73;8.70;;;;;;;-143.84;33.87;44790.13;5135575;27;20438;-76
2022/08/28 10:05:57;;;;;;;39.07;7.53;;;;;;;-143.84;35.33;44788.22;5132804;27;20448;-77
2022/08/28 10:08:43;;;;;;;42.80;7.80;;;;;;;-143.84;34.93;44769.16;5126367;27;20463;-76
2022/08/28 10:11:19;;;;;;;46.80;7.73;;;;;;;-143.84;34.99;44809.16;5126752;27;20478;-76
2022/08/28 10:13:59;;;;;;;50.33;8.60;;;;;;;-143.84;36.27;44788.22;5122886;27;20477;-76
2022/08/28 10:16:33;;;;;;;38.73;7.63;;;;;;;-143.84;35.42;44820.56;5126826;27;20445;-77
2022/08/28 10:19:09;;;;;;;44.07;9.20;;;;;;;-143.84;35.77;44801.53;5126360;27;20458;-76
2022/08/28 10:21:45;;;;;;;60.53;9.90;;;;;;;-143.84;36.67;44832.00;5134170;27;21053;-76
2022/08/28 10:24:26;;;;;;;55.90;10.47;;;;;;;-143.84;37.78;44820.56;5131106;27;20442;-76
2022/08/28 10:27:04;;;;;;;40.03;7.87;;;;;;;-143.84;35.45;44818.66;5119217;27;20956;-76
2022/08/28 10:29:47;;;;;;;37.17;8.00;;;;;;;-143.84;34.29;44832.00;5121638;27;20873;-76
2022/08/28 10:32:36;;;;;;;51.43;7.20;;;;;;;-143.84;36.45;44841.53;5129096;28;20441;-76
2022/08/28 10:35:10;;;;;;;42.67;7.70;;;;;;;-143.84;38.26;44828.19;5117159;27;20450;-76
2022/08/28 10:37:51;;;;;;;46.10;7.23;;;;;;;-143.84;36.21;44841.53;5133866;27;20444;-77
2022/08/28 10:40:25;;;;;;;49.50;8.50;;;;;;;-143.84;37.36;44809.16;5131179;27;20808;-76
2022/08/28 10:42:59;;;;;;;44.70;7.60;;;;;;;-143.84;35.00;44799.63;5135692;27;20433;-77
2022/08/28 10:45:30;;;;;;;36.80;6.87;;;;;;;-143.84;36.90;44784.41;5133574;27;20450;-77
2022/08/28 10:48:01;;;;;;;30.37;7.27;;;;;;;-143.84;38.46;44841.53;5126606;27;20473;-76
2022/08/28 10:50:39;;;;;;;26.07;7.20;;;;;;;-143.84;37.52;44822.47;5120289;27;20427;-76
2022/08/28 10:53:11;;;;;;;51.93;7.37;;;;;;;-143.84;38.51;44826.28;5127843;27;20493;-76
2022/08/28 10:55:47;;;;;;;34.13;8.27;;;;;;;-143.84;39.28;44807.25;5134124;27;20461;-78
2022/08/28 10:58:16;;;;;;;52.23;7.17;;;;;;;-143.84;35.21;44812.97;5133480;27;20427;-76
2022/08/28 11:00:45;;;;;;;31.07;8.10;;;;;;;-143.84;36.42;44786.31;5126221;27;20435;-77
2022/08/28 11:03:16;;;;;;;47.67;6.90;;;;;;;-143.84;36.16;44786.31;5118884;27;20431;-76
2022/08/28 11:05:50;;;;;;;35.87;6.93;;;;;;;-143.84;37.28;44790.13;5130637;27;20435;-77
2022/08/28 11:08:27;;;;;;;49.37;6.60;;;;;;;-143.84;36.82;44835.81;5130767;27;21031;-76
2022/08/28 11:10:55;;;;;;;50.13;8.43;;;;;;;-143.84;36.44;44820.56;5124299;27;20951;-77
2022/08/28 11:13:52;;;;;;;42.43;6.37;;;;;;;-143.84;35.64;44828.19;5129759;27;20447;-77
2022/08/28 11:16:23;;;;;;;85.33;8.77;;;;;;;-143.84;37.22;44832.00;5139043;27;20954;-76
2022/08/28 11:19:23;;;;;;;40.07;7.00;;;;;;;-143.84;36.76;44824.38;5123446;27;20450;-76
2022/08/28 11:21:54;;;;;;;42.27;8.03;;;;;;;-143.84;38.52;44830.09;5128447;27;20450;-75
2022/08/28 11:24:46;;;;;;;35.00;7.10;;;;;;;-143.84;37.30;44849.13;5121127;27;20454;-76
2022/08/28 11:27:24;;;;;;;45.30;7.93;;;;;;;-143.84;39.51;44866.28;5129846;27;20444;-76
2022/08/28 11:30:24;;;;;;;43.53;8.30;;;;;;;-143.84;41.65;44852.94;5125558;27;20522;-77
2022/08/28 11:33:30;;;;;;;55.23;10.77;;;;;;;-143.84;43.25;44866.28;5131518;27;20439;-76
2022/08/28 11:35:58;;;;;;;42.03;8.53;;;;;;;-143.84;45.18;44862.47;5124081;27;20461;-76